Time;durP1;ratioP1;P1;durP2;ratioP2;P2;SDS_P1;SDS_P2;PMS_P1;PMS_P2;Temp;Humidity;BMP_temperature;BMP_pressure;BME280_temperature;BME280_humidity;BME280_pressure;Samples;Min_cycle;Max_cycle;Signal;HPM_P1;HPM_P2
2021/12/26 00:00:05;;;;;;;20.73;13.05;;;23.30;75.40;;;;;;6195669;28;89154;-70
2021/12/26 00:03:07;;;;;;;18.08;13.50;;;23.30;75.40;;;;;;6190732;28;89072;-71
2021/12/26 00:06:13;;;;;;;19.00;12.68;;;23.20;75.50;;;;;;6196734;28;90069;-71
2021/12/26 00:09:16;;;;;;;19.90;13.43;;;23.30;76.40;;;;;;6203598;28;89021;-71
2021/12/26 00:12:18;;;;;;;19.23;13.15;;;23.30;75.60;;;;;;6201358;28;89103;-71
2021/12/26 00:15:20;;;;;;;22.00;13.88;;;23.30;75.70;;;;;;6196242;28;87981;-71
2021/12/26 00:18:23;;;;;;;18.77;13.50;;;23.30;75.70;;;;;;6189460;28;89560;-70
2021/12/26 00:21:25;;;;;;;18.05;12.30;;;23.30;75.70;;;;;;6204731;28;89512;-70
2021/12/26 00:24:28;;;;;;;17.13;12.98;;;23.30;75.80;;;;;;6202014;28;89097;-70
2021/12/26 00:27:30;;;;;;;19.38;12.25;;;23.30;75.90;;;;;;6206278;28;88797;-69
2021/12/26 00:30:33;;;;;;;17.70;12.63;;;23.30;76.30;;;;;;6196688;28;89181;-68
2021/12/26 00:33:35;;;;;;;17.63;11.57;;;23.30;76.20;;;;;;6193021;28;87968;-70
2021/12/26 00:36:37;;;;;;;14.55;9.52;;;23.30;75.70;;;;;;6192857;28;89203;-69
2021/12/26 00:39:40;;;;;;;12.95;10.05;;;23.40;74.70;;;;;;6198873;28;89185;-72
2021/12/26 00:42:43;;;;;;;14.25;9.82;;;23.30;74.80;;;;;;6198744;28;89069;-70
2021/12/26 00:45:45;;;;;;;14.13;9.80;;;23.30;75.00;;;;;;6192406;28;89088;-71
2021/12/26 00:48:47;;;;;;;14.93;9.85;;;23.40;75.10;;;;;;6204483;28;89172;-71
2021/12/26 00:51:49;;;;;;;13.75;9.88;;;23.30;75.10;;;;;;6182617;28;89639;-71
2021/12/26 00:54:53;;;;;;;13.13;9.50;;;23.30;75.10;;;;;;6195121;28;89184;-72
2021/12/26 00:57:55;;;;;;;11.75;9.32;;;23.30;74.90;;;;;;6201334;28;88350;-71
2021/12/26 01:00:57;;;;;;;11.07;8.98;;;23.30;74.90;;;;;;6189454;28;89193;-71
2021/12/26 01:04:00;;;;;;;12.35;8.95;;;23.30;75.10;;;;;;6185487;28;88698;-70
2021/12/26 01:07:07;;;;;;;11.63;8.38;;;23.30;75.00;;;;;;6200208;28;90136;-70
2021/12/26 01:10:11;;;;;;;11.52;8.73;;;23.40;74.90;;;;;;6194728;28;88938;-69
2021/12/26 01:13:22;;;;;;;11.18;8.27;;;23.30;75.20;;;;;;6202967;28;89126;-71
2021/12/26 01:16:25;;;;;;;12.60;8.15;;;23.30;74.40;;;;;;6198112;28;89539;-69
2021/12/26 01:19:33;;;;;;;10.23;7.90;;;23.30;74.60;;;;;;6204444;28;89357;-71
2021/12/26 01:22:36;;;;;;;10.60;7.57;;;23.30;74.50;;;;;;6200040;28;89230;-69
2021/12/26 01:25:40;;;;;;;10.45;7.72;;;23.30;74.50;;;;;;6189729;28;89069;-70
2021/12/26 01:28:42;;;;;;;9.70;7.63;;;23.30;74.50;;;;;;6196362;28;88682;-68
2021/12/26 01:31:45;;;;;;;10.20;7.22;;;23.30;74.60;;;;;;6193064;28;89076;-70
2021/12/26 01:34:47;;;;;;;9.60;7.47;;;23.30;74.50;;;;;;6202359;28;88295;-67
2021/12/26 01:37:49;;;;;;;11.20;7.60;;;23.30;74.60;;;;;;6198003;28;89390;-69
2021/12/26 01:40:55;;;;;;;10.13;6.40;;;23.30;74.20;;;;;;6204204;28;87997;-68
2021/12/26 01:44:03;;;;;;;9.48;6.20;;;23.20;74.10;;;;;;6193903;28;88772;-68
2021/12/26 01:47:06;;;;;;;10.02;6.68;;;23.20;73.90;;;;;;6195847;28;89663;-69
2021/12/26 01:50:09;;;;;;;9.20;6.57;;;23.20;74.00;;;;;;6217886;28;89434;-69
2021/12/26 01:53:11;;;;;;;8.98;6.45;;;23.20;74.00;;;;;;6207752;28;89166;-69
2021/12/26 01:56:15;;;;;;;7.60;6.03;;;23.20;74.10;;;;;;6207373;28;88317;-68
2021/12/26 01:59:17;;;;;;;9.07;6.30;;;23.10;74.00;;;;;;6195045;28;87032;-69
2021/12/26 02:02:21;;;;;;;8.60;6.05;;;23.10;74.00;;;;;;6205624;28;89475;-69
2021/12/26 02:05:23;;;;;;;7.20;5.93;;;23.10;73.90;;;;;;6206490;28;89106;-69
2021/12/26 02:08:26;;;;;;;7.40;6.15;;;23.10;73.80;;;;;;6206060;28;90452;-69
2021/12/26 02:11:29;;;;;;;7.93;6.05;;;23.10;73.80;;;;;;6193839;28;88312;-68
2021/12/26 02:14:32;;;;;;;6.97;5.90;;;23.10;73.80;;;;;;6207281;28;89216;-69
2021/12/26 02:17:34;;;;;;;9.48;5.75;;;23.00;73.70;;;;;;6207327;28;89534;-69
2021/12/26 02:20:51;;;;;;;6.97;5.70;;;23.10;73.80;;;;;;6206616;28;87983;-69
2021/12/26 02:23:59;;;;;;;7.63;5.72;;;23.00;73.70;;;;;;6194194;28;89088;-69
2021/12/26 02:30:22;;;;;;;7.10;5.07;;;23.00;73.70;;;;;;6218115;28;86691;-69
2021/12/26 02:33:25;;;;;;;6.88;5.82;;;23.00;73.50;;;;;;6205841;28;89143;-69
2021/12/26 02:36:28;;;;;;;6.95;5.15;;;23.00;73.60;;;;;;6200168;28;88161;-69
2021/12/26 02:39:32;;;;;;;8.15;5.20;;;23.00;73.50;;;;;;6206475;28;88912;-69
2021/12/26 02:42:34;;;;;;;5.85;4.80;;;23.00;73.60;;;;;;6202809;28;88991;-69
2021/12/26 02:45:36;;;;;;;7.10;5.07;;;23.00;73.60;;;;;;6196576;28;89215;-69
2021/12/26 02:48:39;;;;;;;5.95;4.75;;;22.90;73.50;;;;;;6181693;28;89290;-69
2021/12/26 02:51:43;;;;;;;6.88;4.68;;;22.90;73.40;;;;;;6184114;28;88981;-69
2021/12/26 02:54:45;;;;;;;6.70;4.65;;;22.90;73.50;;;;;;6204798;28;89028;-69
2021/12/26 02:57:48;;;;;;;6.43;5.00;;;22.90;73.50;;;;;;6204343;28;89040;-69
2021/12/26 03:00:53;;;;;;;6.75;4.47;;;22.90;73.50;;;;;;6191287;28;86323;-69
2021/12/26 03:03:55;;;;;;;5.93;4.68;;;22.90;73.50;;;;;;6211837;28;89679;-68
2021/12/26 03:07:02;;;;;;;5.45;4.53;;;22.90;73.60;;;;;;6209885;28;89349;-69
2021/12/26 03:10:06;;;;;;;6.15;4.15;;;22.80;73.30;;;;;;6209734;28;89256;-69
2021/12/26 03:13:09;;;;;;;5.05;4.45;;;22.80;73.30;;;;;;6199657;28;89107;-69
2021/12/26 03:16:11;;;;;;;5.05;4.30;;;22.80;73.40;;;;;;6208498;28;89086;-69
2021/12/26 03:19:13;;;;;;;5.57;3.95;;;22.80;73.40;;;;;;6201009;28;88028;-69
2021/12/26 03:22:18;;;;;;;4.75;4.05;;;22.80;73.30;;;;;;6200743;28;87957;-68
2021/12/26 03:25:22;;;;;;;4.55;4.07;;;22.80;73.30;;;;;;6187317;28;89116;-68
2021/12/26 03:28:24;;;;;;;5.70;4.13;;;22.80;73.30;;;;;;6211185;28;89055;-69
2021/12/26 03:31:26;;;;;;;5.25;4.10;;;22.70;73.30;;;;;;6206725;28;88489;-69
2021/12/26 03:34:28;;;;;;;4.63;3.88;;;22.80;73.20;;;;;;6210364;28;89168;-69
2021/12/26 03:37:32;;;;;;;4.68;3.60;;;22.70;73.10;;;;;;6207651;28;88305;-69
2021/12/26 03:40:34;;;;;;;5.00;3.97;;;22.70;73.20;;;;;;6197918;28;89853;-69
2021/12/26 03:43:36;;;;;;;4.63;3.80;;;22.70;73.10;;;;;;6198589;28;89098;-69
2021/12/26 03:46:39;;;;;;;4.30;3.50;;;22.70;73.10;;;;;;6194052;28;87998;-69
2021/12/26 03:49:41;;;;;;;5.30;3.88;;;22.70;73.20;;;;;;6191692;28;89177;-69
2021/12/26 03:52:45;;;;;;;4.60;3.50;;;22.70;73.10;;;;;;6215173;28;90839;-69
2021/12/26 03:55:48;;;;;;;4.90;3.75;;;22.70;73.10;;;;;;6200857;28;87894;-69
2021/12/26 03:58:50;;;;;;;4.03;3.22;;;22.70;73.10;;;;;;6203541;28;89273;-69
2021/12/26 04:01:52;;;;;;;5.25;3.80;;;22.70;73.10;;;;;;6190779;28;88342;-69
2021/12/26 04:04:54;;;;;;;4.72;3.53;;;22.70;73.20;;;;;;6197975;28;89352;-69
2021/12/26 04:07:58;;;;;;;4.10;3.45;;;22.60;73.10;;;;;;6197542;28;89088;-69
2021/12/26 04:11:00;;;;;;;5.30;3.60;;;22.60;73.20;;;;;;6206967;28;90064;-69
2021/12/26 04:14:02;;;;;;;4.00;3.17;;;22.60;73.20;;;;;;6209606;28;89474;-69
2021/12/26 04:17:04;;;;;;;3.70;3.28;;;22.60;72.90;;;;;;6207745;28;89180;-69
2021/12/26 04:20:09;;;;;;;4.13;3.72;;;22.60;72.70;;;;;;6206486;28;89113;-68
2021/12/26 04:23:14;;;;;;;4.72;3.42;;;22.60;72.70;;;;;;6206388;28;89195;-69
2021/12/26 04:26:17;;;;;;;3.58;3.00;;;22.60;72.70;;;;;;6207007;28;89022;-68
2021/12/26 04:29:19;;;;;;;4.38;3.35;;;22.60;72.70;;;;;;6189684;28;89422;-69
2021/12/26 04:32:22;;;;;;;3.45;3.08;;;22.60;72.50;;;;;;6199879;28;88451;-70
2021/12/26 04:35:24;;;;;;;3.80;3.20;;;22.60;72.40;;;;;;6205831;28;89050;-69
2021/12/26 04:38:28;;;;;;;4.03;3.03;;;22.60;72.40;;;;;;6206918;28;89142;-69
2021/12/26 04:41:30;;;;;;;3.85;3.20;;;22.60;72.30;;;;;;6198163;28;89984;-69
2021/12/26 04:44:32;;;;;;;3.70;2.95;;;22.60;72.20;;;;;;6158875;28;1252062;-69
2021/12/26 04:47:34;;;;;;;4.43;3.13;;;22.60;72.20;;;;;;6216796;28;88188;-69
2021/12/26 04:50:36;;;;;;;3.88;3.10;;;22.70;72.20;;;;;;6204569;28;89186;-69
2021/12/26 04:53:41;;;;;;;3.20;2.90;;;22.60;72.00;;;;;;6217775;28;89020;-69
2021/12/26 04:56:43;;;;;;;3.30;2.97;;;22.70;72.00;;;;;;6209052;28;88006;-69
2021/12/26 04:59:45;;;;;;;3.10;2.80;;;22.70;71.80;;;;;;6194677;28;89654;-70
2021/12/26 05:02:48;;;;;;;3.35;2.78;;;22.70;71.70;;;;;;6197412;28;88304;-70
2021/12/26 05:05:50;;;;;;;3.45;2.90;;;22.70;71.60;;;;;;6193783;28;89219;-70
2021/12/26 05:08:53;;;;;;;3.08;2.78;;;22.70;71.70;;;;;;6207351;28;89319;-70
2021/12/26 05:11:57;;;;;;;3.05;2.75;;;22.80;71.70;;;;;;6204297;28;90319;-70
2021/12/26 05:15:01;;;;;;;3.80;2.60;;;22.80;71.60;;;;;;6206342;28;89077;-70
2021/12/26 05:18:04;;;;;;;4.00;2.88;;;22.80;71.60;;;;;;6207049;28;87865;-70
2021/12/26 05:21:07;;;;;;;3.78;3.00;;;22.80;71.60;;;;;;6194216;28;87095;-70
2021/12/26 05:24:10;;;;;;;3.65;2.67;;;22.90;71.50;;;;;;6200400;28;87827;-70
2021/12/26 05:27:13;;;;;;;3.00;2.58;;;22.90;71.40;;;;;;6208513;28;90850;-69
2021/12/26 05:30:17;;;;;;;2.92;2.42;;;22.90;71.30;;;;;;6206606;28;89630;-69
2021/12/26 05:33:19;;;;;;;3.22;2.88;;;22.90;71.30;;;;;;6205541;28;87264;-70
2021/12/26 05:36:21;;;;;;;3.08;2.72;;;22.90;71.30;;;;;;6203285;28;88033;-69
2021/12/26 05:39:24;;;;;;;4.15;2.88;;;22.90;71.30;;;;;;6207296;28;89038;-70
2021/12/26 05:42:26;;;;;;;3.13;2.80;;;22.90;71.30;;;;;;6204076;28;90063;-70
2021/12/26 05:45:28;;;;;;;4.00;2.80;;;22.90;71.30;;;;;;6209039;28;89075;-69
2021/12/26 05:48:30;;;;;;;3.67;2.60;;;22.90;71.40;;;;;;6208690;28;89020;-68
2021/12/26 05:51:33;;;;;;;4.60;2.63;;;22.90;71.40;;;;;;6193772;28;89453;-70
2021/12/26 05:54:36;;;;;;;3.53;2.70;;;22.90;71.30;;;;;;6195528;28;89179;-69
2021/12/26 05:57:39;;;;;;;2.97;2.53;;;22.80;71.30;;;;;;6191522;28;89164;-69
2021/12/26 06:00:41;;;;;;;3.33;2.63;;;22.90;71.50;;;;;;6198490;28;87875;-68
2021/12/26 06:03:43;;;;;;;2.70;2.40;;;22.90;71.40;;;;;;6216385;28;88353;-70
2021/12/26 06:06:45;;;;;;;3.03;2.63;;;22.80;71.30;;;;;;6206861;28;88296;-70
2021/12/26 06:09:48;;;;;;;3.15;2.60;;;22.90;71.30;;;;;;6203415;28;88106;-70
2021/12/26 06:12:51;;;;;;;3.40;2.75;;;22.90;71.30;;;;;;6197777;28;89736;-70
2021/12/26 06:15:54;;;;;;;3.47;2.63;;;22.90;71.30;;;;;;6206879;28;89095;-69
2021/12/26 06:18:56;;;;;;;2.58;2.38;;;22.80;71.30;;;;;;6181761;28;88385;-70
2021/12/26 06:21:58;;;;;;;2.92;2.63;;;22.80;71.20;;;;;;6220570;28;87888;-70
2021/12/26 06:25:01;;;;;;;4.25;2.60;;;22.80;71.20;;;;;;6217244;28;89086;-69
2021/12/26 06:28:04;;;;;;;2.80;2.47;;;22.90;71.10;;;;;;6208229;28;89148;-69
2021/12/26 06:31:06;;;;;;;2.95;2.35;;;22.90;71.10;;;;;;6194530;28;87904;-70
2021/12/26 06:34:08;;;;;;;2.85;2.45;;;22.90;71.10;;;;;;6195990;28;87046;-69
2021/12/26 06:37:10;;;;;;;3.35;2.70;;;22.90;71.00;;;;;;6199138;28;89077;-69
2021/12/26 06:40:14;;;;;;;3.03;2.60;;;22.90;71.00;;;;;;6207415;28;89407;-69
2021/12/26 06:43:16;;;;;;;3.13;2.70;;;22.90;70.90;;;;;;6206012;28;88709;-70
2021/12/26 06:46:18;;;;;;;3.03;2.60;;;22.90;70.90;;;;;;6199412;28;89527;-69
2021/12/26 06:49:20;;;;;;;2.92;2.40;;;22.90;70.80;;;;;;6188855;28;88030;-70
2021/12/26 06:52:22;;;;;;;2.72;2.38;;;22.90;70.70;;;;;;6205454;28;87682;-70
2021/12/26 06:55:25;;;;;;;3.13;2.60;;;22.90;70.70;;;;;;6204163;28;89349;-70
2021/12/26 06:58:28;;;;;;;3.20;2.78;;;23.00;70.70;;;;;;6210232;28;89418;-70
2021/12/26 07:01:30;;;;;;;3.00;2.50;;;23.00;70.70;;;;;;6191985;28;89058;-70
2021/12/26 07:04:32;;;;;;;3.28;2.47;;;23.00;70.60;;;;;;6201002;28;88340;-69
2021/12/26 07:07:34;;;;;;;3.80;2.35;;;23.00;70.60;;;;;;6201856;28;89041;-72
2021/12/26 07:10:37;;;;;;;3.80;2.72;;;23.00;70.60;;;;;;6200654;28;89446;-68
2021/12/26 07:13:39;;;;;;;2.90;2.40;;;23.00;70.50;;;;;;6191303;28;89960;-66
2021/12/26 07:16:41;;;;;;;2.65;2.42;;;23.00;70.70;;;;;;6217928;28;87857;-69
2021/12/26 07:19:43;;;;;;;3.65;2.63;;;23.10;70.60;;;;;;6202738;28;89060;-70
2021/12/26 07:22:46;;;;;;;4.13;3.00;;;23.10;70.50;;;;;;6195697;28;89523;-69
2021/12/26 07:25:49;;;;;;;2.97;2.67;;;23.10;70.40;;;;;;6201680;28;89144;-70
2021/12/26 07:28:51;;;;;;;4.03;2.80;;;23.10;70.40;;;;;;6191744;28;89104;-69
2021/12/26 07:31:53;;;;;;;3.35;2.67;;;23.10;70.40;;;;;;6195266;28;87992;-70
2021/12/26 07:34:57;;;;;;;3.45;2.60;;;23.10;70.40;;;;;;6193494;28;88559;-68
2021/12/26 07:37:59;;;;;;;3.13;2.53;;;23.10;70.30;;;;;;6196271;28;88935;-67
2021/12/26 07:41:02;;;;;;;3.33;2.47;;;23.20;70.30;;;;;;6191442;28;89203;-69
2021/12/26 07:44:05;;;;;;;3.45;2.70;;;23.20;70.30;;;;;;6196956;28;88032;-69
2021/12/26 07:47:07;;;;;;;2.67;2.45;;;23.20;70.10;;;;;;6204293;28;89044;-69
2021/12/26 07:50:10;;;;;;;3.00;2.60;;;23.20;70.20;;;;;;6200553;28;88265;-71
2021/12/26 07:53:12;;;;;;;3.47;2.35;;;23.20;70.10;;;;;;6206656;28;89063;-69
2021/12/26 07:56:35;;;;;;;3.67;2.53;;;23.30;70.10;;;;;;6205776;28;89067;-69
2021/12/26 07:59:37;;;;;;;2.83;2.40;;;23.20;70.10;;;;;;6197886;28;89326;-71
2021/12/26 08:02:39;;;;;;;3.35;2.35;;;23.20;70.10;;;;;;6191828;28;87793;-69
2021/12/26 08:05:41;;;;;;;3.17;2.55;;;23.30;70.10;;;;;;6208481;28;88289;-69
2021/12/26 08:08:43;;;;;;;5.72;2.90;;;23.20;70.20;;;;;;6210159;28;89030;-70
2021/12/26 08:11:47;;;;;;;4.40;2.33;;;23.30;69.40;;;;;;6202814;28;89377;-70
2021/12/26 08:14:49;;;;;;;3.80;2.50;;;23.30;70.00;;;;;;6188219;28;90091;-67
2021/12/26 08:17:51;;;;;;;4.22;3.20;;;23.30;70.10;;;;;;6205339;28;90350;-68
2021/12/26 08:20:53;;;;;;;4.68;4.00;;;23.30;66.70;;;;;;6195219;28;89045;-67
2021/12/26 08:23:55;;;;;;;5.13;4.00;;;23.20;61.80;;;;;;6209435;28;89230;-67
2021/12/26 08:26:59;;;;;;;5.18;4.35;;;23.20;59.10;;;;;;6209666;28;89553;-68
2021/12/26 08:30:01;;;;;;;5.32;4.55;;;23.20;58.00;;;;;;6207711;28;88280;-67
2021/12/26 08:33:06;;;;;;;5.05;4.55;;;23.10;56.70;;;;;;6209511;28;89208;-67
2021/12/26 08:36:08;;;;;;;5.63;4.63;;;23.10;55.70;;;;;;6205063;28;88332;-68
2021/12/26 08:39:10;;;;;;;5.22;4.60;;;23.10;53.60;;;;;;6202001;28;89134;-67
2021/12/26 08:42:15;;;;;;;5.03;4.53;;;23.00;52.50;;;;;;6208881;28;89069;-67
2021/12/26 08:45:17;;;;;;;5.28;4.68;;;22.90;52.80;;;;;;6204412;28;88723;-66
2021/12/26 08:48:20;;;;;;;5.35;4.82;;;22.90;52.80;;;;;;6218602;28;89442;-67
2021/12/26 08:51:22;;;;;;;5.63;4.80;;;22.90;53.30;;;;;;6214444;28;87952;-67
2021/12/26 08:54:26;;;;;;;5.13;4.50;;;22.90;52.60;;;;;;6187403;28;89056;-67
2021/12/26 08:57:30;;;;;;;6.28;5.00;;;22.80;51.90;;;;;;6204022;28;88987;-67
2021/12/26 09:00:33;;;;;;;5.60;4.80;;;22.80;50.90;;;;;;6202056;28;89250;-67
2021/12/26 09:03:37;;;;;;;5.88;4.95;;;22.70;51.60;;;;;;6188436;28;88199;-66
2021/12/26 09:06:39;;;;;;;6.07;5.25;;;22.70;51.80;;;;;;6208329;28;86349;-67
2021/12/26 09:09:42;;;;;;;5.95;4.43;;;22.60;50.50;;;;;;6206408;28;89083;-67
2021/12/26 09:12:46;;;;;;;5.38;4.57;;;22.70;52.70;;;;;;6205444;28;89464;-67
2021/12/26 09:15:48;;;;;;;6.25;4.80;;;22.60;52.00;;;;;;6211635;28;88731;-66
2021/12/26 09:18:50;;;;;;;6.30;4.72;;;22.60;51.60;;;;;;6196811;28;87438;-67
2021/12/26 09:21:52;;;;;;;6.72;5.22;;;22.50;53.20;;;;;;6195548;28;89219;-66
2021/12/26 09:24:55;;;;;;;7.78;4.95;;;22.50;52.40;;;;;;6205690;28;89133;-66
2021/12/26 09:27:58;;;;;;;6.90;5.50;;;22.50;52.50;;;;;;6200165;28;88029;-67
2021/12/26 09:31:00;;;;;;;7.07;5.35;;;22.50;51.80;;;;;;6208909;28;89057;-68
2021/12/26 09:34:02;;;;;;;5.47;4.82;;;22.50;51.80;;;;;;6205137;28;89109;-67
2021/12/26 09:37:08;;;;;;;5.20;4.63;;;22.40;53.00;;;;;;6206607;28;88300;-67
2021/12/26 09:40:12;;;;;;;6.90;4.25;;;22.40;53.80;;;;;;6186749;28;88345;-67
2021/12/26 09:43:15;;;;;;;5.43;4.05;;;22.50;55.70;;;;;;6204156;28;89410;-67
2021/12/26 09:46:17;;;;;;;5.75;4.30;;;22.50;57.20;;;;;;6206965;28;90061;-68
2021/12/26 09:49:19;;;;;;;12.40;4.40;;;22.50;57.90;;;;;;6209223;28;89290;-68
2021/12/26 09:52:21;;;;;;;7.50;4.07;;;22.50;58.70;;;;;;6202831;28;88471;-67
2021/12/26 09:55:27;;;;;;;7.88;4.50;;;22.50;59.70;;;;;;6194290;28;88037;-69
2021/12/26 09:58:30;;;;;;;10.95;4.53;;;22.50;60.60;;;;;;6194337;28;87881;-68
2021/12/26 10:01:36;;;;;;;7.35;4.03;;;22.50;61.80;;;;;;6204002;28;88970;-67
2021/12/26 10:04:39;;;;;;;12.93;4.65;;;22.60;62.80;;;;;;6184965;28;89487;-67
2021/12/26 10:07:41;;;;;;;8.20;4.50;;;22.50;63.70;;;;;;6203124;28;88636;-67
2021/12/26 10:10:43;;;;;;;9.07;4.10;;;22.50;64.00;;;;;;6194657;28;89135;-67
2021/12/26 10:13:49;;;;;;;8.93;3.97;;;22.60;64.10;;;;;;6218242;28;89116;-67
2021/12/26 10:16:54;;;;;;;8.27;3.95;;;22.60;64.40;;;;;;6192802;28;90021;-67
2021/12/26 10:20:05;;;;;;;8.55;4.35;;;22.60;64.60;;;;;;6184933;28;89406;-68
2021/12/26 10:23:25;;;;;;;9.98;4.10;;;22.60;64.80;;;;;;6204842;28;88959;-67
2021/12/26 10:26:30;;;;;;;8.77;4.20;;;22.60;64.90;;;;;;6215093;28;89124;-67
2021/12/26 10:29:38;;;;;;;9.30;3.75;;;22.60;65.10;;;;;;6201578;28;88355;-67
2021/12/26 10:32:41;;;;;;;7.38;3.90;;;22.60;65.20;;;;;;6199989;28;88995;-67
2021/12/26 10:35:43;;;;;;;7.32;3.92;;;22.60;65.30;;;;;;6198798;28;89416;-67
2021/12/26 10:39:07;;;;;;;8.02;4.20;;;22.60;65.40;;;;;;6194827;28;87175;-67
2021/12/26 10:42:13;;;;;;;7.53;3.83;;;22.60;65.60;;;;;;6194459;28;89149;-67
2021/12/26 10:45:20;;;;;;;7.18;4.07;;;22.60;65.90;;;;;;6193912;28;88789;-67
2021/12/26 10:48:25;;;;;;;10.32;4.00;;;22.60;65.90;;;;;;6182010;28;88984;-67
2021/12/26 10:51:34;;;;;;;6.38;3.55;;;22.60;66.10;;;;;;6191280;28;89072;-67
2021/12/26 10:54:41;;;;;;;7.15;3.50;;;22.60;66.20;;;;;;6206696;28;89385;-67
2021/12/26 10:57:45;;;;;;;6.60;4.05;;;22.60;66.20;;;;;;6197204;28;89283;-67
2021/12/26 11:00:51;;;;;;;7.38;3.70;;;22.60;66.40;;;;;;6191404;28;89383;-67
2021/12/26 11:04:06;;;;;;;7.25;3.85;;;22.60;66.40;;;;;;6201188;28;89063;-67
2021/12/26 11:07:10;;;;;;;5.85;3.67;;;22.60;66.50;;;;;;6203167;28;89279;-67
2021/12/26 11:10:16;;;;;;;5.95;3.97;;;22.50;66.60;;;;;;6191966;28;88314;-67
2021/12/26 11:13:19;;;;;;;5.18;3.72;;;22.60;66.70;;;;;;6208313;28;88012;-67
2021/12/26 11:16:37;;;;;;;6.22;3.58;;;22.50;66.70;;;;;;6207138;28;89078;-67
2021/12/26 11:19:44;;;;;;;5.93;3.22;;;22.50;66.70;;;;;;6185830;28;90035;-67
2021/12/26 11:22:46;;;;;;;4.78;3.40;;;22.60;66.80;;;;;;6202680;28;89125;-67
2021/12/26 11:25:51;;;;;;;6.65;3.47;;;22.60;66.90;;;;;;6208360;28;89099;-67
2021/12/26 11:28:54;;;;;;;5.45;3.53;;;22.50;66.90;;;;;;6211027;28;89074;-67
2021/12/26 11:31:58;;;;;;;5.53;3.80;;;22.50;67.80;;;;;;6219664;28;89289;-67
2021/12/26 11:35:00;;;;;;;6.22;3.50;;;22.50;66.90;;;;;;6200703;28;89015;-67
2021/12/26 11:38:03;;;;;;;6.07;3.55;;;22.60;66.90;;;;;;6209805;28;88253;-67
2021/12/26 11:41:08;;;;;;;6.07;3.67;;;22.60;67.00;;;;;;6221236;28;87236;-67
2021/12/26 11:44:23;;;;;;;7.40;3.90;;;22.60;66.90;;;;;;6209201;28;89482;-67
2021/12/26 11:47:57;;;;;;;4.70;3.40;;;22.60;67.10;;;;;;6214036;28;89013;-67
2021/12/26 11:51:13;;;;;;;6.13;3.80;;;22.60;67.10;;;;;;6205943;28;89933;-67
2021/12/26 11:54:44;;;;;;;5.70;3.40;;;22.60;68.00;;;;;;6193800;28;88006;-67
2021/12/26 11:58:28;;;;;;;4.25;3.50;;;22.60;67.10;;;;;;6209219;28;88060;-65
2021/12/26 12:01:30;;;;;;;5.63;3.85;;;22.60;67.20;;;;;;6209940;28;89282;-65
2021/12/26 12:04:35;;;;;;;3.88;3.38;;;22.60;67.20;;;;;;6198523;28;89052;-65
2021/12/26 12:07:49;;;;;;;5.05;3.63;;;22.60;67.20;;;;;;6197762;28;89467;-65
2021/12/26 12:10:58;;;;;;;4.38;3.30;;;22.60;67.20;;;;;;6197032;28;89043;-65
2021/12/26 12:14:00;;;;;;;5.03;3.50;;;22.60;67.30;;;;;;6208139;28;88292;-65
2021/12/26 12:17:15;;;;;;;5.72;3.75;;;22.60;67.20;;;;;;6209187;28;89125;-65
2021/12/26 12:20:21;;;;;;;4.03;3.15;;;22.60;67.20;;;;;;6207393;28;89077;-65
2021/12/26 12:23:23;;;;;;;5.15;3.80;;;22.60;67.20;;;;;;6207245;28;90035;-65
2021/12/26 12:26:44;;;;;;;4.45;3.25;;;22.60;67.20;;;;;;6207813;28;89097;-65
2021/12/26 12:29:51;;;;;;;4.25;3.50;;;22.60;67.20;;;;;;6200104;28;89369;-66
2021/12/26 12:33:12;;;;;;;5.07;3.10;;;22.60;67.20;;;;;;6205384;28;88966;-65
2021/12/26 12:36:26;;;;;;;4.50;3.40;;;22.60;67.20;;;;;;6214091;28;89095;-66
2021/12/26 12:39:30;;;;;;;4.32;3.22;;;22.60;67.10;;;;;;6184775;28;89063;-65
2021/12/26 12:42:33;;;;;;;3.53;3.00;;;22.60;67.10;;;;;;6200421;28;87952;-65
2021/12/26 12:46:04;;;;;;;3.88;3.47;;;22.60;67.20;;;;;;6194008;28;87211;-67
2021/12/26 12:49:08;;;;;;;4.82;3.58;;;22.60;67.20;;;;;;6183167;28;89225;-67
2021/12/26 12:52:41;;;;;;;4.25;3.30;;;22.60;67.20;;;;;;6200691;28;89560;-67
2021/12/26 12:55:52;;;;;;;4.07;3.03;;;22.60;67.20;;;;;;6205751;28;90027;-67
2021/12/26 12:59:34;;;;;;;4.18;3.42;;;22.60;67.20;;;;;;6203707;28;89440;-67
2021/12/26 13:02:40;;;;;;;4.50;3.45;;;22.60;67.20;;;;;;6194930;28;89543;-67
2021/12/26 13:05:42;;;;;;;4.93;3.30;;;22.60;67.30;;;;;;6195533;28;89364;-67
2021/12/26 13:08:46;;;;;;;4.15;3.33;;;22.60;67.20;;;;;;6193215;28;89107;-67
2021/12/26 13:11:50;;;;;;;4.25;3.28;;;22.60;67.20;;;;;;6208882;28;89068;-67
2021/12/26 13:14:54;;;;;;;4.57;3.30;;;22.60;67.40;;;;;;6202588;28;89440;-67
2021/12/26 13:17:56;;;;;;;3.88;3.10;;;22.60;67.40;;;;;;6201594;28;88329;-67
2021/12/26 13:21:01;;;;;;;3.95;3.03;;;22.60;67.40;;;;;;6204379;28;88244;-67
2021/12/26 13:24:05;;;;;;;4.45;3.25;;;22.60;67.40;;;;;;6184646;28;89345;-67
2021/12/26 13:27:09;;;;;;;3.70;2.90;;;22.60;67.40;;;;;;6207161;28;89970;-67
2021/12/26 13:30:11;;;;;;;4.78;3.35;;;22.60;67.40;;;;;;6208579;28;89033;-67
2021/12/26 13:33:17;;;;;;;4.30;3.60;;;22.60;67.40;;;;;;6199962;28;87975;-67
2021/12/26 13:36:22;;;;;;;4.03;3.22;;;22.60;67.40;;;;;;6205142;28;89095;-67
2021/12/26 13:39:26;;;;;;;4.45;3.60;;;22.60;67.40;;;;;;6207764;28;89079;-68
2021/12/26 13:42:28;;;;;;;5.63;3.42;;;22.60;67.40;;;;;;6206627;28;89041;-67
2021/12/26 13:45:32;;;;;;;3.63;3.17;;;22.60;67.40;;;;;;6207526;28;89294;-67
2021/12/26 13:48:37;;;;;;;4.10;2.97;;;22.70;67.40;;;;;;6207332;28;88611;-67
2021/12/26 13:51:43;;;;;;;3.80;3.00;;;22.60;67.30;;;;;;6195044;28;89114;-67
2021/12/26 13:54:51;;;;;;;3.65;3.20;;;22.60;67.30;;;;;;6206339;28;89104;-67
2021/12/26 13:57:58;;;;;;;3.70;3.30;;;22.60;67.40;;;;;;6207971;28;89638;-67
2021/12/26 14:01:00;;;;;;;4.00;3.30;;;22.60;67.40;;;;;;6207412;28;88307;-67
2021/12/26 14:04:03;;;;;;;4.20;3.15;;;22.60;67.40;;;;;;6207933;28;89224;-67
2021/12/26 14:07:08;;;;;;;5.20;3.55;;;22.60;67.40;;;;;;6192858;28;89469;-67
2021/12/26 14:10:16;;;;;;;3.90;3.10;;;22.60;67.40;;;;;;6206422;28;89533;-67
2021/12/26 14:13:20;;;;;;;3.35;2.97;;;22.60;67.40;;;;;;6187057;28;89040;-66
2021/12/26 14:16:24;;;;;;;4.25;3.15;;;22.60;67.40;;;;;;6196590;28;89139;-67
2021/12/26 14:19:26;;;;;;;3.80;2.90;;;22.60;67.40;;;;;;6200485;28;88514;-67
2021/12/26 14:22:28;;;;;;;4.72;3.45;;;22.60;67.40;;;;;;6207207;28;89018;-67
2021/12/26 14:25:32;;;;;;;3.60;3.20;;;22.60;67.50;;;;;;6205978;28;89126;-67
2021/12/26 14:28:34;;;;;;;3.97;3.58;;;22.60;67.50;;;;;;6205500;28;88919;-67
2021/12/26 14:31:39;;;;;;;3.60;3.05;;;22.60;68.40;;;;;;6195489;28;88047;-67
2021/12/26 14:34:46;;;;;;;4.45;3.00;;;22.60;67.50;;;;;;6203849;28;89072;-67
2021/12/26 14:37:48;;;;;;;3.55;3.10;;;22.60;67.50;;;;;;6190558;28;89075;-67
2021/12/26 14:40:56;;;;;;;3.78;3.20;;;22.60;67.50;;;;;;6184128;28;89258;-67
2021/12/26 14:43:58;;;;;;;3.88;3.00;;;22.60;67.50;;;;;;6193883;28;89085;-67
2021/12/26 14:47:12;;;;;;;3.90;3.33;;;22.60;67.40;;;;;;6207865;28;89090;-67
2021/12/26 14:50:16;;;;;;;3.33;2.97;;;22.60;67.50;;;;;;6235492;28;87195;-67
2021/12/26 14:53:18;;;;;;;3.60;3.00;;;22.60;67.40;;;;;;6198985;28;89003;-67
2021/12/26 14:56:22;;;;;;;3.58;3.20;;;22.60;67.40;;;;;;6210267;28;88919;-67
2021/12/26 14:59:27;;;;;;;4.30;3.30;;;22.60;67.40;;;;;;6209575;28;88888;-67
2021/12/26 15:02:35;;;;;;;3.92;3.35;;;22.60;67.40;;;;;;6211876;28;87957;-65
2021/12/26 15:05:37;;;;;;;3.63;3.10;;;22.60;67.40;;;;;;6208697;28;89086;-65
2021/12/26 15:08:40;;;;;;;3.78;3.30;;;22.60;67.40;;;;;;6209472;28;89252;-65
2021/12/26 15:11:43;;;;;;;4.22;3.40;;;22.60;67.40;;;;;;6205033;28;87959;-65
2021/12/26 15:14:45;;;;;;;3.85;3.22;;;22.60;67.50;;;;;;6185511;28;89133;-65
2021/12/26 15:17:59;;;;;;;4.28;3.25;;;22.60;67.40;;;;;;6203043;28;89038;-65
2021/12/26 15:21:05;;;;;;;3.72;3.33;;;22.60;67.50;;;;;;6210054;28;88240;-65
2021/12/26 15:24:08;;;;;;;3.97;3.20;;;22.60;67.50;;;;;;6210085;28;89247;-65
2021/12/26 15:27:12;;;;;;;4.50;3.38;;;22.60;67.60;;;;;;6207567;28;89096;-65
2021/12/26 15:30:21;;;;;;;3.38;3.00;;;22.60;67.50;;;;;;6210659;28;90282;-65
2021/12/26 15:33:31;;;;;;;3.97;3.20;;;22.60;67.60;;;;;;6206965;28;88840;-65
2021/12/26 15:36:36;;;;;;;4.00;3.20;;;22.60;67.60;;;;;;6202710;28;89047;-65
2021/12/26 15:39:38;;;;;;;3.58;2.95;;;22.60;67.60;;;;;;6185847;28;89048;-65
2021/12/26 15:42:41;;;;;;;3.70;3.08;;;22.60;67.50;;;;;;6202437;28;88234;-65
2021/12/26 15:45:44;;;;;;;5.68;2.90;;;22.60;67.50;;;;;;6192818;28;89005;-65
2021/12/26 15:48:46;;;;;;;5.35;3.60;;;22.60;67.50;;;;;;6199181;28;89461;-65
2021/12/26 15:51:49;;;;;;;4.13;3.47;;;22.60;67.50;;;;;;6208692;28;88345;-65
2021/12/26 15:54:53;;;;;;;4.32;3.20;;;22.60;67.40;;;;;;6198550;28;89038;-66
2021/12/26 15:57:58;;;;;;;5.07;3.40;;;22.60;67.40;;;;;;6198148;28;89007;-65
2021/12/26 16:01:00;;;;;;;4.68;3.28;;;22.60;67.40;;;;;;6208538;28;89955;-66